LCPH Airport Information

Runway Information
Runway 11 Length 8858 ft width 148 ft
Elevation 41 ft Threshold 0 ft Heading 110
Runway 29 Length 8858 ft Width 148 ft
Elevation 30 ft Threshold 0 ft Heading 290
Airport Frequencies
Type APP Name APP Frequency 120.8 MHZ
Type TWR Name TWR Frequency 119.9 MHZ
Airport Navaids
Type TACAN Name Pafos Frequency 113200 KHZ
Type VOR-DME Name Pafos Frequency 117900 KHZ
Type NDB Name Pafos Frequency 328 KHZ
Airport Weather Information & NOTAM
ADDS - METARS form results

(0722 UTC 17 June 2021)
Data provider http://aviationweather.gov/metar/data/
 
METAR text: LCPH 170700Z 24006KT 210V280 9999 FEW020 SCT025 24/18 Q1015
Conditions at: LCPH (PAPHOS/BAF INTL , CY) observed 0700 UTC 17 June 2021
Temperature: 24.0°C (75°F)
Dewpoint: 18.0°C (64°F) [RH = 69%]
Pressure (altimeter): 29.97 inches Hg (1015.0 mb)
Winds: from the WSW (240 degrees) at 7 MPH (6 knots; 3.1 m/s)
Visibility: 6 or more miles (10+ km)
Ceiling: at least 12,000 feet AGL
Clouds: few clouds at 2000 feet AGL
scattered clouds at 2500 feet AGL
Weather: no significant weather observed at this time

METAR text: LCPH 170630Z 23007KT 9999 FEW020 SCT025 24/17 Q1015
Conditions at: LCPH (PAPHOS/BAF INTL , CY) observed 0630 UTC 17 June 2021
Temperature: 24.0°C (75°F)
Dewpoint: 17.0°C (63°F) [RH = 65%]
Pressure (altimeter): 29.97 inches Hg (1015.0 mb)
Winds: from the SW (230 degrees) at 8 MPH (7 knots; 3.6 m/s)
Visibility: 6 or more miles (10+ km)
Ceiling: at least 12,000 feet AGL
Clouds: few clouds at 2000 feet AGL
scattered clouds at 2500 feet AGL
Weather: no significant weather observed at this time

Forecast for: LCPH (PAPHOS/BAF INTL , CY)
Text: TAF LCPH 170530Z 1706/1806 24004KT 9999 SCT017 SCT022
Forecast period: 0600 to 0700 UTC 17 June 2021
Forecast type: FROM: standard forecast or significant change
Winds: from the WSW (240 degrees) at 5 MPH (4 knots; 2.1 m/s)
Visibility: 6 or more miles (10+ km)
Ceiling: at least 12,000 feet AGL
Clouds: scattered clouds at 1700 feet AGL
scattered clouds at 2200 feet AGL
Weather: no significant weather forecast for this period
Text: BECMG 1707/1710 28014KT
Forecast period: 0700 to 1900 UTC 17 June 2021
Forecast type: BECOMING: Conditions expected to become as follows by 1000 UTC 17 June 2021
Winds: from the W (280 degrees) at 16 MPH (14 knots; 7.2 m/s)
Visibility: 6 or more miles (10+ km)
Ceiling: at least 12,000 feet AGL
Clouds: scattered clouds at 1700 feet AGL
scattered clouds at 2200 feet AGL
Weather: no significant weather forecast for this period
Text: BECMG 1719/1722 35008KT
Forecast period: 1900 UTC 17 June 2021 to 0600 UTC 18 June 2021
Forecast type: BECOMING: Conditions expected to become as follows by 2200 UTC 17 June 2021
Winds: from the N (350 degrees) at 9 MPH (8 knots; 4.1 m/s)
Visibility: 6 or more miles (10+ km)
Ceiling: at least 12,000 feet AGL
Clouds: scattered clouds at 1700 feet AGL
scattered clouds at 2200 feet AGL
Weather: no significant weather forecast for this period